createdAt,value
2019-05-13T00:00:53.937Z,80469.63
2019-05-13T00:03:23.978Z,80474.69
2019-05-13T00:05:53.708Z,80477.72
2019-05-13T00:08:24.975Z,80462.55
2019-05-13T00:10:54.310Z,80468.63
2019-05-13T00:13:23.876Z,80484.80
2019-05-13T00:15:54.393Z,80487.83
2019-05-13T00:18:23.824Z,80483.78
2019-05-13T00:20:54.188Z,80477.72
2019-05-13T00:23:25.563Z,80474.69
2019-05-13T00:25:54.784Z,80475.70
2019-05-13T00:28:24.005Z,80479.74
2019-05-13T00:30:54.286Z,80480.75
2019-05-13T00:33:24.496Z,80468.63
2019-05-13T00:35:53.796Z,80467.61
2019-05-13T00:38:24.524Z,80475.70
2019-05-13T00:40:54.676Z,80485.81
2019-05-13T00:43:24.582Z,80487.83
2019-05-13T00:45:54.421Z,80484.80
2019-05-13T00:48:23.643Z,80481.77
2019-05-13T00:50:54.441Z,80481.77
2019-05-13T00:53:23.879Z,80480.75
2019-05-13T00:55:53.587Z,80489.85
2019-05-13T00:58:24.244Z,80488.84
2019-05-13T01:00:54.581Z,80482.77
2019-05-13T01:03:27.835Z,80478.73
2019-05-13T01:05:55.690Z,80488.84
2019-05-13T01:08:25.791Z,80485.81
2019-05-13T01:10:55.418Z,80476.70
2019-05-13T01:13:24.660Z,80501.98
2019-05-13T01:15:54.517Z,80480.75
2019-05-13T01:18:23.812Z,80498.95
2019-05-13T01:20:53.828Z,80487.83
2019-05-13T01:23:24.330Z,80495.92
2019-05-13T01:25:54.574Z,80506.03
2019-05-13T01:28:24.460Z,80518.16
2019-05-13T01:30:54.071Z,80524.23
2019-05-13T01:33:23.693Z,80532.31
2019-05-13T01:35:53.852Z,80544.45
2019-05-13T01:38:24.053Z,80559.61
2019-05-13T01:40:54.098Z,80567.70
2019-05-13T01:43:24.595Z,80583.88
2019-05-13T01:45:54.336Z,80591.97
2019-05-13T01:48:24.121Z,80570.73
2019-05-13T01:50:53.795Z,80600.05
2019-05-13T01:53:24.381Z,80587.92
2019-05-13T01:55:53.843Z,80630.39
2019-05-13T01:58:23.820Z,80648.58
2019-05-13T02:00:55.235Z,80663.75
2019-05-13T02:03:24.766Z,80669.81
2019-05-13T02:05:54.629Z,80687.00
2019-05-13T02:08:24.572Z,80688.02
2019-05-13T02:10:55.502Z,80669.81
2019-05-13T02:13:25.357Z,80656.67
2019-05-13T02:15:55.737Z,80693.07
2019-05-13T02:18:25.082Z,80705.20
2019-05-13T02:20:56.081Z,80722.39
2019-05-13T02:23:25.576Z,80722.39
2019-05-13T02:25:55.187Z,80715.31
2019-05-13T02:28:25.315Z,80726.44
2019-05-13T02:30:56.857Z,80692.06
2019-05-13T02:33:26.769Z,80671.84
2019-05-13T02:35:55.999Z,80679.92
2019-05-13T02:38:30.125Z,80707.23
2019-05-13T02:40:56.587Z,80699.14
2019-05-13T02:43:26.207Z,80725.42
2019-05-13T02:45:55.445Z,80745.64
2019-05-13T02:48:24.681Z,80748.68
2019-05-13T02:50:54.603Z,80745.64
2019-05-13T02:53:24.748Z,80747.67
2019-05-13T02:55:54.334Z,80712.28
2019-05-13T02:58:25.084Z,80700.15
2019-05-13T03:00:55.180Z,80729.47
2019-05-13T03:03:24.614Z,80726.44
2019-05-13T03:05:54.077Z,80727.45
2019-05-13T03:08:46.191Z,80699.14
2019-05-13T03:10:54.327Z,80738.57
2019-05-13T03:13:24.904Z,80759.80
2019-05-13T03:16:07.669Z,80754.75
2019-05-13T03:18:37.291Z,80755.76
2019-05-13T03:21:07.613Z,80724.41
2019-05-13T03:23:37.298Z,80745.64
2019-05-13T03:26:06.557Z,80755.76
2019-05-13T03:28:35.779Z,80765.87
2019-05-13T03:31:07.489Z,80743.62
2019-05-13T03:33:45.357Z,80707.23
2019-05-13T03:36:17.098Z,80703.19
2019-05-13T03:39:01.622Z,80704.19
2019-05-13T03:41:22.528Z,80725.42
2019-05-13T03:43:53.335Z,80737.56
2019-05-13T03:46:23.978Z,80748.68
2019-05-13T03:48:55.169Z,80755.76
2019-05-13T03:51:24.624Z,80751.72
2019-05-13T03:53:53.958Z,80758.79
2019-05-13T03:56:24.008Z,80740.59
2019-05-13T03:58:53.877Z,80702.17
2019-05-13T04:01:24.556Z,80715.31
2019-05-13T04:03:55.733Z,80688.02
2019-05-13T04:06:25.718Z,80683.97
2019-05-13T04:09:15.739Z,80676.89
2019-05-13T04:11:28.219Z,80654.66
2019-05-13T04:13:58.772Z,80621.28
2019-05-13T04:16:28.418Z,80585.90
2019-05-13T04:18:57.727Z,80582.87
2019-05-13T04:21:27.642Z,80562.64
2019-05-13T04:23:56.911Z,80548.49
2019-05-13T04:26:26.124Z,80548.49
2019-05-13T04:28:55.729Z,80541.41
2019-05-13T04:31:25.002Z,80504.01
2019-05-13T04:33:54.342Z,80470.64
2019-05-13T04:36:23.992Z,80422.11
2019-05-13T04:38:53.645Z,80406.95
2019-05-13T04:41:23.486Z,80386.73
2019-05-13T04:43:54.062Z,80375.61
2019-05-13T04:46:23.886Z,80340.22
2019-05-13T04:48:53.479Z,80304.84
2019-05-13T04:51:23.123Z,80276.53
2019-05-13T04:53:57.153Z,80261.38
2019-05-13T04:56:24.479Z,80224.98
2019-05-13T04:58:53.791Z,80201.72
2019-05-13T05:01:55.293Z,80182.52
2019-05-13T05:04:34.779Z,80163.30
2019-05-13T05:07:18.383Z,80145.11
2019-05-13T05:10:26.589Z,80126.91
2019-05-13T05:13:12.997Z,80123.87
2019-05-13T05:16:02.992Z,80143.09
2019-05-13T05:19:15.663Z,80075.36
2019-05-13T05:21:55.552Z,79974.27
2019-05-13T05:24:45.246Z,80011.67
2019-05-13T05:27:51.451Z,80045.03
2019-05-13T05:30:44.746Z,80063.23
2019-05-13T05:33:44.425Z,80095.58
2019-05-13T05:36:27.848Z,80087.48
2019-05-13T05:39:22.813Z,80077.37
2019-05-13T05:41:55.824Z,80023.80
2019-05-13T05:44:28.391Z,79944.95
2019-05-13T05:47:02.176Z,79908.56
2019-05-13T05:49:32.453Z,79879.25
2019-05-13T05:52:03.565Z,79858.02
2019-05-13T05:54:34.927Z,79845.89
2019-05-13T05:57:05.426Z,79751.88
2019-05-13T05:59:35.612Z,79726.61
2019-05-13T06:02:05.882Z,79678.09
2019-05-13T06:04:35.263Z,79602.28
2019-05-13T06:07:07.178Z,79623.50
2019-05-13T06:09:36.786Z,79525.46
2019-05-13T06:12:06.330Z,79430.45
2019-05-13T06:14:35.567Z,79401.14
2019-05-13T06:17:04.784Z,79428.42
2019-05-13T06:19:34.037Z,79437.52
2019-05-13T06:22:03.880Z,79528.49
2019-05-13T06:24:33.196Z,79585.09
2019-05-13T06:27:05.233Z,79537.59
2019-05-13T06:29:35.424Z,79473.91
2019-05-13T06:32:17.526Z,79274.80
2019-05-13T06:34:36.485Z,78927.13
2019-05-13T06:37:06.429Z,78739.16
2019-05-13T06:39:35.691Z,78987.77
2019-05-13T06:42:05.063Z,79066.59
2019-05-13T06:44:34.715Z,79167.66
2019-05-13T06:47:03.919Z,79016.06
2019-05-13T06:49:33.159Z,79212.13
2019-05-13T06:52:02.696Z,79229.31
2019-05-13T06:54:33.301Z,79373.84
2019-05-13T06:57:05.029Z,79173.73
2019-05-13T06:59:34.355Z,79207.08
2019-05-13T07:02:03.584Z,79632.60
2019-05-13T07:04:34.713Z,79853.97
2019-05-13T07:07:12.263Z,79899.46
2019-05-13T07:09:34.887Z,79921.70
2019-05-13T07:12:04.221Z,79961.13
2019-05-13T07:14:33.492Z,79994.48
2019-05-13T07:17:04.627Z,79993.47
2019-05-13T07:19:33.863Z,79976.29
2019-05-13T07:22:03.344Z,79971.23
2019-05-13T07:24:33.473Z,79978.31
2019-05-13T07:27:02.712Z,79993.47
2019-05-13T07:29:32.738Z,79980.33
2019-05-13T07:32:02.444Z,79960.11
2019-05-13T07:34:33.841Z,79949.00
2019-05-13T07:37:03.617Z,79921.70
2019-05-13T07:39:33.186Z,79915.64
2019-05-13T07:42:05.884Z,79950.01
2019-05-13T07:44:35.622Z,79929.79
2019-05-13T07:47:04.912Z,79904.52
2019-05-13T07:49:34.173Z,79890.36
2019-05-13T07:52:04.637Z,79872.17
2019-05-13T07:54:34.814Z,79893.39
2019-05-13T07:57:06.175Z,79889.36
2019-05-13T07:59:35.474Z,79867.11
2019-05-13T08:02:04.771Z,79861.05
2019-05-13T08:04:34.407Z,79850.94
2019-05-13T08:07:04.031Z,79840.83
2019-05-13T08:09:33.572Z,79803.43
2019-05-13T08:12:10.604Z,79791.30
2019-05-13T08:14:35.968Z,79781.19
2019-05-13T08:17:07.185Z,79780.19
2019-05-13T08:19:36.841Z,79800.40
2019-05-13T08:22:06.449Z,79821.63
2019-05-13T08:24:35.711Z,79826.68
2019-05-13T08:27:05.362Z,79824.66
2019-05-13T08:29:35.230Z,79798.38
2019-05-13T08:32:04.789Z,79775.13
2019-05-13T08:34:34.674Z,79784.22
2019-05-13T08:37:03.971Z,79770.08
2019-05-13T08:39:38.408Z,79767.05
2019-05-13T08:42:15.118Z,79727.63
2019-05-13T08:44:36.152Z,79698.30
2019-05-13T08:47:05.454Z,79702.34
2019-05-13T08:49:34.693Z,79686.17
2019-05-13T08:52:05.130Z,79700.33
2019-05-13T08:54:34.430Z,79700.33
2019-05-13T08:57:05.389Z,79701.34
2019-05-13T08:59:34.722Z,79701.34
2019-05-13T09:02:04.060Z,79687.19
2019-05-13T09:04:33.313Z,79686.17
2019-05-13T09:07:02.784Z,79687.19
2019-05-13T09:09:32.155Z,79658.88
2019-05-13T09:12:02.532Z,79638.67
2019-05-13T09:14:32.744Z,79658.88
2019-05-13T09:17:02.535Z,79653.83
2019-05-13T09:19:32.545Z,79632.60
2019-05-13T09:22:02.902Z,79608.34
2019-05-13T09:24:37.230Z,79640.69
2019-05-13T09:27:03.763Z,79640.69
2019-05-13T09:29:32.992Z,79610.36
2019-05-13T09:32:03.775Z,79600.26
2019-05-13T09:34:33.378Z,79587.12
2019-05-13T09:37:03.226Z,79576.00
2019-05-13T09:39:32.985Z,79567.91
2019-05-13T09:42:03.121Z,79590.15
2019-05-13T09:44:34.696Z,79588.13
2019-05-13T09:47:04.315Z,79567.91
2019-05-13T09:49:33.630Z,79562.86
2019-05-13T09:52:02.862Z,79533.55
2019-05-13T09:54:33.164Z,79547.70
2019-05-13T09:57:04.216Z,79564.88
2019-05-13T09:59:33.444Z,79561.84
2019-05-13T10:02:03.383Z,79536.58
2019-05-13T10:04:32.831Z,79525.46
2019-05-13T10:07:02.726Z,79524.45
2019-05-13T10:09:32.975Z,79490.08
2019-05-13T10:12:03.448Z,79504.23
2019-05-13T10:14:33.782Z,79502.21
2019-05-13T10:17:06.554Z,79502.21
2019-05-13T10:19:34.193Z,79498.17
2019-05-13T10:22:03.527Z,79488.06
2019-05-13T10:24:33.243Z,79460.77
2019-05-13T10:27:02.898Z,79453.70
2019-05-13T10:29:32.613Z,79451.67
2019-05-13T10:32:04.403Z,79480.98
2019-05-13T10:34:33.911Z,79478.97
2019-05-13T10:37:03.470Z,79457.73
2019-05-13T10:39:32.829Z,79483.00
2019-05-13T10:42:03.591Z,79467.84
2019-05-13T10:44:33.275Z,79432.47
2019-05-13T10:47:02.780Z,79463.80
2019-05-13T10:49:33.290Z,79454.70
2019-05-13T10:52:03.457Z,79409.22
2019-05-13T10:54:32.958Z,79429.44
2019-05-13T10:57:04.075Z,79430.45
2019-05-13T10:59:33.650Z,79415.28
2019-05-13T11:02:03.933Z,79410.23
2019-05-13T11:04:33.538Z,79421.35
2019-05-13T11:07:03.302Z,79424.38
2019-05-13T11:09:32.849Z,79403.16
2019-05-13T11:12:02.363Z,79386.98
2019-05-13T11:14:33.275Z,79360.70
2019-05-13T11:17:02.850Z,79365.77
2019-05-13T11:19:36.938Z,79383.95
2019-05-13T11:22:05.590Z,79353.63
2019-05-13T11:24:34.840Z,79335.44
2019-05-13T11:27:04.421Z,79349.59
2019-05-13T11:29:34.046Z,79334.42
2019-05-13T11:32:03.332Z,79346.55
2019-05-13T11:34:33.247Z,79335.44
2019-05-13T11:37:03.699Z,79327.35
2019-05-13T11:39:33.270Z,79324.32
2019-05-13T11:42:02.640Z,79325.33
2019-05-13T11:44:32.429Z,79334.42
2019-05-13T11:47:02.913Z,79327.35
2019-05-13T11:49:32.453Z,79289.95
2019-05-13T11:52:02.670Z,79275.80
2019-05-13T11:54:32.771Z,79279.84
2019-05-13T11:57:06.113Z,79288.95
2019-05-13T11:59:33.341Z,79275.80
2019-05-13T12:02:04.444Z,79271.77
2019-05-13T12:04:34.906Z,79267.72
2019-05-13T12:07:04.432Z,79277.83
2019-05-13T12:09:35.408Z,79257.61
2019-05-13T12:12:04.931Z,79252.56
2019-05-13T12:14:50.641Z,79251.55
2019-05-13T12:17:05.617Z,79255.59
2019-05-13T12:19:35.128Z,79241.44
2019-05-13T12:22:04.867Z,79234.37
2019-05-13T12:24:34.739Z,79238.41
2019-05-13T12:27:04.438Z,79218.20
2019-05-13T12:29:33.922Z,79210.11
2019-05-13T12:32:03.539Z,79193.94
2019-05-13T12:34:40.615Z,79208.09
2019-05-13T12:37:04.556Z,79182.83
2019-05-13T12:39:34.051Z,79197.98
2019-05-13T12:42:03.638Z,79182.83
2019-05-13T12:44:33.218Z,79187.88
2019-05-13T12:47:03.524Z,79187.88
2019-05-13T12:49:36.393Z,79189.89
2019-05-13T12:52:04.697Z,79179.79
2019-05-13T12:54:34.654Z,79182.83
2019-05-13T12:57:03.968Z,79187.88
2019-05-13T12:59:34.929Z,79169.69
2019-05-13T13:02:04.176Z,79158.56
2019-05-13T13:04:35.272Z,79141.38
2019-05-13T13:07:04.615Z,79146.44
2019-05-13T13:09:35.330Z,79119.15
2019-05-13T13:12:04.545Z,79102.98
2019-05-13T13:14:39.256Z,79142.39
2019-05-13T13:17:05.462Z,79157.55
2019-05-13T13:19:34.702Z,79140.38
2019-05-13T13:22:07.893Z,79126.22
2019-05-13T13:24:36.208Z,79127.23
2019-05-13T13:27:14.540Z,79087.82
2019-05-13T13:29:36.752Z,79092.88
2019-05-13T13:32:06.356Z,79098.94
2019-05-13T13:34:35.654Z,79107.02
2019-05-13T13:37:05.359Z,79110.05
2019-05-13T13:39:34.738Z,79118.14
2019-05-13T13:42:05.448Z,79106.01
2019-05-13T13:44:35.316Z,79087.82
2019-05-13T13:47:06.545Z,79109.05
2019-05-13T13:49:35.887Z,79095.91
2019-05-13T13:52:05.520Z,79108.03
2019-05-13T13:54:35.150Z,79105.00
2019-05-13T13:57:04.382Z,79098.94
2019-05-13T13:59:36.357Z,79065.58
2019-05-13T14:02:07.085Z,79082.77
2019-05-13T14:04:37.701Z,79065.58
2019-05-13T14:07:33.481Z,79092.88
2019-05-13T14:09:39.497Z,79095.91
2019-05-13T14:12:11.200Z,79059.52
2019-05-13T14:14:41.420Z,79042.34
2019-05-13T14:17:11.475Z,79059.52
2019-05-13T14:19:42.141Z,79044.36
2019-05-13T14:22:12.601Z,79053.45
2019-05-13T14:24:42.660Z,79045.38
2019-05-13T14:27:12.384Z,79070.64
2019-05-13T14:29:48.710Z,79085.80
2019-05-13T14:32:13.156Z,79095.91
2019-05-13T14:34:42.810Z,79094.89
2019-05-13T14:37:12.107Z,79085.80
2019-05-13T14:39:41.740Z,79042.34
2019-05-13T14:42:11.803Z,79001.91
2019-05-13T14:44:42.547Z,79021.11
2019-05-13T14:47:12.643Z,79027.18
2019-05-13T14:49:42.610Z,79060.53
2019-05-13T14:52:12.121Z,79081.75
2019-05-13T14:54:42.698Z,79095.91
2019-05-13T14:57:14.895Z,79081.75
2019-05-13T14:59:51.233Z,79083.78
2019-05-13T15:02:20.330Z,79096.91
2019-05-13T15:04:52.336Z,79077.71
2019-05-13T15:07:21.753Z,79067.61
2019-05-13T15:09:51.736Z,79074.68
2019-05-13T15:12:21.795Z,79088.83
2019-05-13T15:14:52.247Z,79056.48
2019-05-13T15:17:23.824Z,79048.41
2019-05-13T15:19:53.274Z,79041.33
2019-05-13T15:22:22.918Z,79059.52
2019-05-13T15:24:52.201Z,79059.52
2019-05-13T15:27:22.875Z,79060.53
2019-05-13T15:29:52.188Z,79092.88
2019-05-13T15:32:21.902Z,79074.68
2019-05-13T15:34:53.451Z,79108.03
2019-05-13T15:37:23.260Z,79116.12
2019-05-13T15:39:52.551Z,79109.05
2019-05-13T15:42:21.842Z,79093.88
2019-05-13T15:44:53.059Z,79120.16
2019-05-13T15:47:26.591Z,79123.19
2019-05-13T15:49:54.372Z,79124.20
2019-05-13T15:52:24.055Z,79121.17
2019-05-13T15:54:53.898Z,79066.59
2019-05-13T15:57:23.495Z,79057.50
2019-05-13T15:59:53.040Z,79044.36
2019-05-13T16:02:22.761Z,79076.70
2019-05-13T16:05:00.702Z,79128.25
2019-05-13T16:07:23.308Z,79129.25
2019-05-13T16:09:52.829Z,79126.22
2019-05-13T16:12:23.785Z,79101.97
2019-05-13T16:14:53.338Z,79107.02
2019-05-13T16:17:37.514Z,79131.28
2019-05-13T16:19:54.008Z,79143.41
2019-05-13T16:22:24.682Z,79161.59
2019-05-13T16:24:54.074Z,79164.63
2019-05-13T16:27:23.734Z,79170.70
2019-05-13T16:29:53.049Z,79150.48
2019-05-13T16:32:22.838Z,79135.32
2019-05-13T16:34:52.544Z,79153.52
2019-05-13T16:37:22.170Z,79132.29
2019-05-13T16:39:52.140Z,79161.59
2019-05-13T16:42:22.683Z,79162.61
2019-05-13T16:44:55.321Z,79129.25
2019-05-13T16:47:24.626Z,79141.38
2019-05-13T16:49:55.260Z,79172.72
2019-05-13T16:52:25.822Z,79176.76
2019-05-13T16:54:56.067Z,79166.65
2019-05-13T16:57:26.114Z,79182.83
2019-05-13T16:59:56.419Z,79185.86
2019-05-13T17:02:26.031Z,79186.86
2019-05-13T17:04:55.500Z,79195.96
2019-05-13T17:07:25.405Z,79195.96
2019-05-13T17:09:55.098Z,79195.96
2019-05-13T17:12:24.383Z,79180.80
2019-05-13T17:14:53.642Z,79191.92
2019-05-13T17:17:23.954Z,79187.88
2019-05-13T17:19:54.071Z,79195.96
2019-05-13T17:22:27.594Z,79209.10
2019-05-13T17:24:58.215Z,79228.30
2019-05-13T17:27:27.576Z,79249.53
2019-05-13T17:29:56.831Z,79256.60
2019-05-13T17:32:26.117Z,79262.66
2019-05-13T17:34:56.056Z,79262.66
2019-05-13T17:37:25.336Z,79272.77
2019-05-13T17:39:54.964Z,79275.80
2019-05-13T17:42:24.166Z,79283.89
2019-05-13T17:44:57.560Z,79318.26
2019-05-13T17:47:26.808Z,79319.27
2019-05-13T17:49:56.464Z,79321.29
2019-05-13T17:52:27.525Z,79325.33
2019-05-13T17:54:57.069Z,79335.44
2019-05-13T17:57:27.383Z,79365.77
2019-05-13T17:59:56.571Z,79373.84
2019-05-13T18:02:26.353Z,79373.84
2019-05-13T18:04:55.969Z,79360.70
2019-05-13T18:07:25.575Z,79353.63
2019-05-13T18:09:56.858Z,79309.16
2019-05-13T18:12:26.754Z,79315.23
2019-05-13T18:14:59.525Z,79291.98
2019-05-13T18:17:31.020Z,79313.20
2019-05-13T18:20:02.393Z,79373.84
2019-05-13T18:22:31.366Z,79401.14
2019-05-13T18:25:02.587Z,79432.47
2019-05-13T18:27:32.493Z,79446.62
2019-05-13T18:30:02.308Z,79457.73
2019-05-13T18:32:32.129Z,79470.88
2019-05-13T18:35:01.924Z,79478.97
2019-05-13T18:37:31.681Z,79491.09
2019-05-13T18:40:02.531Z,79502.21
2019-05-13T18:42:32.654Z,79506.25
2019-05-13T18:45:02.438Z,79510.30
2019-05-13T18:47:32.252Z,79511.31
2019-05-13T18:50:02.415Z,79514.34
2019-05-13T18:52:31.960Z,79540.63
2019-05-13T18:55:02.218Z,79559.83
2019-05-13T18:57:32.030Z,79569.94
2019-05-13T19:00:02.259Z,79582.06
2019-05-13T19:02:32.148Z,79589.14
2019-05-13T19:05:01.964Z,79590.15
2019-05-13T19:07:33.105Z,79622.50
2019-05-13T19:10:02.679Z,79634.63
2019-05-13T19:12:32.297Z,79652.81
2019-05-13T19:15:02.626Z,79653.83
2019-05-13T19:17:32.376Z,79656.86
2019-05-13T19:20:02.144Z,79686.17
2019-05-13T19:22:31.931Z,79689.20
2019-05-13T19:25:02.304Z,79709.42
2019-05-13T19:27:32.139Z,79720.55
2019-05-13T19:30:03.016Z,79731.66
2019-05-13T19:32:32.746Z,79749.86
2019-05-13T19:35:04.122Z,79761.98
2019-05-13T19:37:33.339Z,79760.98
2019-05-13T19:40:03.709Z,79771.08
2019-05-13T19:42:33.005Z,79773.11
2019-05-13T19:45:02.277Z,79780.19
2019-05-13T19:47:31.497Z,79787.26
2019-05-13T19:50:02.345Z,79806.47
2019-05-13T19:52:32.151Z,79811.52
2019-05-13T19:55:01.944Z,79815.56
2019-05-13T19:57:32.011Z,79827.69
2019-05-13T20:00:01.497Z,79836.79
2019-05-13T20:02:31.606Z,79856.00
2019-05-13T20:05:01.278Z,79861.05
2019-05-13T20:07:31.794Z,79871.16
2019-05-13T20:10:02.796Z,79884.30
2019-05-13T20:12:32.359Z,79887.33
2019-05-13T20:15:01.635Z,79890.36
2019-05-13T20:17:32.120Z,79896.43
2019-05-13T20:20:02.791Z,79903.50
2019-05-13T20:22:32.037Z,79903.50
2019-05-13T20:25:01.319Z,79913.61
2019-05-13T20:27:31.678Z,79921.70
2019-05-13T20:30:04.096Z,79921.70
2019-05-13T20:32:34.994Z,79928.78
2019-05-13T20:35:05.354Z,79927.77
2019-05-13T20:37:34.915Z,79933.83
2019-05-13T20:40:04.683Z,79942.93
2019-05-13T20:42:33.963Z,79954.05
2019-05-13T20:45:03.467Z,79968.20
2019-05-13T20:47:33.383Z,79978.31
2019-05-13T20:50:05.037Z,79985.39
2019-05-13T20:52:35.342Z,79984.38
2019-05-13T20:55:05.904Z,79993.47
2019-05-13T20:57:35.297Z,80004.59
2019-05-13T21:00:05.802Z,80014.70
2019-05-13T21:02:36.730Z,80018.75
2019-05-13T21:05:09.003Z,80008.64
2019-05-13T21:07:41.700Z,80013.69
2019-05-13T21:10:15.185Z,80020.77
2019-05-13T21:12:51.290Z,80030.87
2019-05-13T21:15:21.769Z,80036.94
2019-05-13T21:17:52.812Z,80039.97
2019-05-13T21:20:25.954Z,80042.00
2019-05-13T21:22:56.847Z,80042.00
2019-05-13T21:25:27.888Z,80051.09
2019-05-13T21:27:57.469Z,80054.13
2019-05-13T21:30:26.961Z,80061.20
2019-05-13T21:32:56.184Z,80055.14
2019-05-13T21:35:26.180Z,80058.17
2019-05-13T21:37:55.394Z,80055.14
2019-05-13T21:40:24.639Z,80075.36
2019-05-13T21:42:53.920Z,80074.34
2019-05-13T21:45:23.170Z,80090.52
2019-05-13T21:47:53.895Z,80097.59
2019-05-13T21:50:33.542Z,80087.48
2019-05-13T21:52:54.428Z,80082.44
2019-05-13T21:55:23.669Z,80090.52
2019-05-13T21:57:53.228Z,80086.48
2019-05-13T22:00:26.358Z,80092.55
2019-05-13T22:02:55.968Z,80088.50
2019-05-13T22:05:25.579Z,80090.52
2019-05-13T22:07:54.948Z,80101.64
2019-05-13T22:10:25.301Z,80086.48
2019-05-13T22:12:55.947Z,80078.39
2019-05-13T22:15:25.546Z,80093.55
2019-05-13T22:17:54.787Z,80085.47
2019-05-13T22:20:24.015Z,80092.55
2019-05-13T22:22:55.212Z,80113.77
2019-05-13T22:25:24.809Z,80106.70
2019-05-13T22:27:54.051Z,80109.73
2019-05-13T22:30:23.639Z,80125.91
2019-05-13T22:32:53.231Z,80113.77
2019-05-13T22:35:24.697Z,80112.77
2019-05-13T22:37:53.935Z,80121.86
2019-05-13T22:40:23.466Z,80130.95
2019-05-13T22:42:56.605Z,80146.13
2019-05-13T22:45:25.296Z,80132.98
2019-05-13T22:47:54.905Z,80132.98
2019-05-13T22:50:24.134Z,80113.77
2019-05-13T22:52:53.775Z,80122.87
2019-05-13T22:55:23.036Z,80153.20
2019-05-13T22:57:53.097Z,80143.09
2019-05-13T23:00:24.091Z,80159.27
2019-05-13T23:02:53.641Z,80167.35
2019-05-13T23:05:22.878Z,80179.48
2019-05-13T23:07:52.330Z,80170.38
2019-05-13T23:10:23.170Z,80181.50
2019-05-13T23:12:53.581Z,80184.53
2019-05-13T23:15:22.805Z,80170.38
2019-05-13T23:17:55.709Z,80179.48
2019-05-13T23:20:24.996Z,80184.53
2019-05-13T23:22:54.231Z,80177.46
2019-05-13T23:25:24.491Z,80181.50
2019-05-13T23:27:55.067Z,80193.64
2019-05-13T23:30:24.283Z,80204.75
2019-05-13T23:32:55.169Z,80204.75
2019-05-13T23:35:24.366Z,80212.84
2019-05-13T23:37:53.589Z,80215.88
2019-05-13T23:40:23.846Z,80202.73
2019-05-13T23:42:53.198Z,80220.93
2019-05-13T23:45:24.226Z,80221.94
2019-05-13T23:47:53.457Z,80212.84
2019-05-13T23:50:24.660Z,80228.01
2019-05-13T23:52:54.205Z,80223.96
2019-05-13T23:55:24.131Z,80229.02
2019-05-13T23:57:53.385Z,80244.19
